Time;durP1;ratioP1;P1;durP2;ratioP2;P2;SDS_P1;SDS_P2;PMS_P1;PMS_P2;Temp;Humidity;BMP_temperature;BMP_pressure;BME280_temperature;BME280_humidity;BME280_pressure;Samples;Min_cycle;Max_cycle;Signal;HPM_P1;HPM_P2
2022/11/30 00:00:28;;;;;;;7.90;5.27;;;;;;;-141.59;100.00;61776.25;5053358;28;20201;-87
2022/11/30 00:02:56;;;;;;;9.17;5.97;;;;;;;-141.59;100.00;61776.25;5051168;28;20213;-87
2022/11/30 00:05:23;;;;;;;8.03;6.10;;;;;;;-141.59;100.00;61776.25;5061222;28;20202;-87
2022/11/30 00:07:53;;;;;;;8.57;5.90;;;;;;;-141.59;100.00;61776.25;5044193;28;20503;-86
2022/11/30 00:10:21;;;;;;;8.13;6.20;;;;;;;-141.59;100.00;61776.25;5047997;28;20226;-87
2022/11/30 00:12:49;;;;;;;8.63;6.17;;;;;;;-141.59;100.00;61776.25;5052872;28;20205;-87
2022/11/30 00:15:17;;;;;;;7.37;5.53;;;;;;;-141.59;100.00;61776.25;5039364;28;20197;-87
2022/11/30 00:17:44;;;;;;;8.27;6.13;;;;;;;-141.59;100.00;61776.25;5046610;28;20193;-87
2022/11/30 00:20:12;;;;;;;8.37;6.10;;;;;;;-141.59;100.00;61776.25;5048837;28;20234;-87
2022/11/30 00:22:40;;;;;;;9.87;5.83;;;;;;;-141.59;100.00;61776.25;5045795;28;20227;-87
2022/11/30 00:25:09;;;;;;;7.17;5.97;;;;;;;-141.59;100.00;61776.25;5049223;28;20303;-87
2022/11/30 00:27:36;;;;;;;8.30;5.97;;;;;;;-141.59;100.00;61776.25;5051682;28;20202;-87
2022/11/30 00:30:08;;;;;;;7.27;5.53;;;;;;;-141.59;100.00;61776.25;5050174;28;20289;-86
2022/11/30 00:32:35;;;;;;;6.40;5.23;;;;;;;-141.59;100.00;61776.25;5069604;28;20206;-87
2022/11/30 00:35:02;;;;;;;8.23;5.73;;;;;;;-141.59;100.00;61776.25;5046751;28;20198;-87
2022/11/30 00:37:31;;;;;;;8.70;6.20;;;;;;;-141.59;100.00;61776.25;5051847;28;20209;-87
2022/11/30 00:39:58;;;;;;;9.63;5.63;;;;;;;-141.59;100.00;61776.25;5049966;28;20216;-87
2022/11/30 00:42:25;;;;;;;8.17;6.00;;;;;;;-141.59;100.00;61776.25;5051094;28;20214;-87
2022/11/30 00:44:52;;;;;;;7.03;5.80;;;;;;;-141.59;100.00;61776.25;5044792;28;20201;-87
2022/11/30 00:47:20;;;;;;;6.80;5.20;;;;;;;-141.59;100.00;61776.25;5047237;28;20207;-86
2022/11/30 00:49:47;;;;;;;6.70;5.60;;;;;;;-141.59;100.00;61776.25;5063913;28;20203;-87
2022/11/30 00:52:14;;;;;;;7.03;5.03;;;;;;;-141.59;100.00;61776.25;5043686;28;20225;-86
2022/11/30 00:54:41;;;;;;;7.20;5.33;;;;;;;-141.59;100.00;61776.25;5047301;28;20193;-87
2022/11/30 00:57:08;;;;;;;8.50;6.20;;;;;;;-141.59;100.00;61776.25;5046672;28;20305;-88
2022/11/30 00:59:35;;;;;;;7.10;5.93;;;;;;;-141.59;100.00;61776.25;5042434;28;20203;-86
2022/11/30 01:02:03;;;;;;;7.77;5.67;;;;;;;-141.59;100.00;61776.25;5045843;28;20225;-87
2022/11/30 01:04:31;;;;;;;6.27;5.00;;;;;;;-141.59;100.00;61776.25;5044784;28;20198;-87
2022/11/30 01:06:58;;;;;;;9.13;5.50;;;;;;;-141.59;100.00;61776.25;5045666;28;20215;-87
2022/11/30 01:09:25;;;;;;;7.40;5.40;;;;;;;-141.59;100.00;61776.25;5049442;28;20205;-88
2022/11/30 01:11:53;;;;;;;7.20;5.17;;;;;;;-141.59;100.00;61776.25;5041022;28;20227;-87
2022/11/30 01:14:20;;;;;;;5.83;4.77;;;;;;;-141.59;100.00;61776.25;5039847;28;20264;-86
2022/11/30 01:16:47;;;;;;;8.70;5.43;;;;;;;-141.59;100.00;61776.25;5035897;28;20293;-87
2022/11/30 01:19:14;;;;;;;6.40;5.10;;;;;;;-141.59;100.00;61776.25;5032727;28;20202;-87
2022/11/30 01:21:42;;;;;;;6.53;5.23;;;;;;;-141.59;100.00;61776.25;5036877;28;20203;-87
2022/11/30 01:24:10;;;;;;;6.70;5.10;;;;;;;-141.59;100.00;61776.25;5049540;28;20206;-87
2022/11/30 01:26:37;;;;;;;8.00;4.97;;;;;;;-141.59;100.00;61776.25;5045008;28;20224;-88
2022/11/30 01:29:06;;;;;;;8.63;5.83;;;;;;;-141.59;100.00;61776.25;5045156;28;20502;-87
2022/11/30 01:31:35;;;;;;;5.80;4.63;;;;;;;-141.59;100.00;61776.25;5045991;28;20285;-86
2022/11/30 01:34:02;;;;;;;6.37;4.97;;;;;;;-141.59;100.00;61776.25;5040113;28;20202;-87
2022/11/30 01:36:29;;;;;;;6.63;5.00;;;;;;;-141.59;100.00;61776.25;5049352;28;20197;-86
2022/11/30 01:38:58;;;;;;;6.70;5.00;;;;;;;-141.59;100.00;61776.25;5043518;28;20210;-87
2022/11/30 01:41:27;;;;;;;6.33;5.43;;;;;;;-141.59;100.00;61776.25;5041322;28;20221;-85
2022/11/30 01:43:57;;;;;;;6.93;4.93;;;;;;;-141.59;100.00;61776.25;5045756;28;20210;-88
2022/11/30 01:46:29;;;;;;;6.80;5.17;;;;;;;-141.59;100.00;61776.25;5035712;28;20210;-87
2022/11/30 01:49:02;;;;;;;6.53;5.00;;;;;;;-141.59;100.00;61776.25;5045801;28;20237;-86
2022/11/30 01:51:34;;;;;;;6.43;5.10;;;;;;;-141.59;100.00;61776.25;5046884;28;20233;-87
2022/11/30 01:54:04;;;;;;;7.50;5.40;;;;;;;-141.59;100.00;61776.25;5034553;28;20202;-87
2022/11/30 01:56:32;;;;;;;7.80;5.80;;;;;;;-141.59;100.00;61776.25;5041549;28;20257;-88
2022/11/30 01:58:59;;;;;;;7.80;6.03;;;;;;;-141.59;100.00;61776.25;5043694;28;20211;-88
2022/11/30 02:01:26;;;;;;;7.77;5.90;;;;;;;-141.59;100.00;61776.25;5040551;28;20216;-86
2022/11/30 02:03:59;;;;;;;8.03;5.63;;;;;;;-141.59;100.00;61776.25;5044502;28;20206;-86
2022/11/30 02:06:26;;;;;;;7.30;5.97;;;;;;;-141.59;100.00;61776.25;5044602;28;20202;-87
2022/11/30 02:08:54;;;;;;;8.83;5.63;;;;;;;-141.59;100.00;61776.25;5044780;28;20209;-87
2022/11/30 02:11:24;;;;;;;6.87;5.40;;;;;;;-141.59;100.00;61776.25;5041341;28;20226;-87
2022/11/30 02:14:08;;;;;;;8.07;5.63;;;;;;;-141.59;100.00;61776.25;5046143;28;20202;-87
2022/11/30 02:16:42;;;;;;;8.17;6.23;;;;;;;-141.59;100.00;61776.25;5041517;28;20202;-87
2022/11/30 02:19:40;;;;;;;7.37;5.57;;;;;;;-141.59;100.00;61776.25;5038194;28;20280;-84
2022/11/30 02:22:18;;;;;;;7.27;5.57;;;;;;;-141.59;100.00;61776.25;5045488;28;20279;-87
2022/11/30 02:24:58;;;;;;;8.37;5.93;;;;;;;-141.59;100.00;61776.25;5047432;28;20251;-85
2022/11/30 02:27:45;;;;;;;8.87;5.63;;;;;;;-141.59;100.00;61776.25;5049180;28;20202;-84
2022/11/30 02:30:16;;;;;;;8.00;6.00;;;;;;;-141.59;100.00;61776.25;5040971;28;20208;-84
2022/11/30 02:32:48;;;;;;;7.63;6.03;;;;;;;-141.59;100.00;61776.25;5043333;28;20296;-84
2022/11/30 02:35:20;;;;;;;8.90;6.00;;;;;;;-141.59;100.00;61776.25;5033660;28;20202;-85
2022/11/30 02:37:49;;;;;;;7.60;5.70;;;;;;;-141.59;100.00;61776.25;5043999;28;20225;-84
2022/11/30 02:40:22;;;;;;;8.10;5.80;;;;;;;-141.59;100.00;61776.25;5040248;28;20203;-84
2022/11/30 02:42:51;;;;;;;8.13;6.33;;;;;;;-141.59;100.00;61776.25;5049139;28;20265;-85
2022/11/30 02:45:28;;;;;;;10.03;7.07;;;;;;;-141.59;100.00;61776.25;5041815;28;20207;-84
2022/11/30 02:48:02;;;;;;;9.13;6.27;;;;;;;-141.59;100.00;61776.25;5042911;28;20206;-85
2022/11/30 02:50:37;;;;;;;9.70;6.73;;;;;;;-141.59;100.00;61776.25;5041892;28;20207;-84
2022/11/30 02:53:07;;;;;;;9.07;6.57;;;;;;;-141.59;100.00;61776.25;5040611;28;20217;-85
2022/11/30 02:55:34;;;;;;;9.93;6.20;;;;;;;-141.59;100.00;61776.25;5040792;28;20243;-84
2022/11/30 02:58:01;;;;;;;8.10;5.90;;;;;;;-141.59;100.00;61776.25;5045819;28;20202;-85
2022/11/30 03:00:30;;;;;;;9.43;6.37;;;;;;;-141.59;100.00;61776.25;5047727;28;20198;-83
2022/11/30 03:02:57;;;;;;;9.37;6.83;;;;;;;-141.59;100.00;61776.25;5036324;28;20207;-85
2022/11/30 03:05:24;;;;;;;8.97;7.03;;;;;;;-141.59;100.00;61776.25;5046271;28;20206;-83
2022/11/30 03:07:51;;;;;;;8.77;6.10;;;;;;;-141.59;100.00;61776.25;5047238;28;20204;-85
2022/11/30 03:10:18;;;;;;;9.00;6.60;;;;;;;-141.59;100.00;61776.25;5035823;28;20218;-85
2022/11/30 03:12:45;;;;;;;8.83;6.37;;;;;;;-141.59;100.00;61776.25;5047161;28;20229;-84
2022/11/30 03:15:12;;;;;;;8.70;6.80;;;;;;;-141.59;100.00;61776.25;5045102;28;20210;-85
2022/11/30 03:17:41;;;;;;;9.07;6.17;;;;;;;-141.59;100.00;61776.25;5043402;28;20199;-85
2022/11/30 03:20:09;;;;;;;9.13;6.67;;;;;;;-141.59;100.00;61776.25;5044617;28;20199;-85
2022/11/30 03:22:37;;;;;;;9.87;7.47;;;;;;;-141.59;100.00;61776.25;5033572;28;20211;-84
2022/11/30 03:25:04;;;;;;;10.33;7.10;;;;;;;-141.59;100.00;61776.25;5047657;28;20288;-84
2022/11/30 03:27:31;;;;;;;11.50;7.33;;;;;;;-141.59;100.00;61776.25;5049388;28;20220;-85
2022/11/30 03:29:58;;;;;;;11.10;7.23;;;;;;;-141.59;100.00;61776.25;5044781;28;20206;-84
2022/11/30 03:32:26;;;;;;;9.17;6.90;;;;;;;-141.59;100.00;61776.25;5049413;28;20222;-84
2022/11/30 03:34:54;;;;;;;9.37;6.70;;;;;;;-141.59;100.00;61776.25;5042876;28;20206;-84
2022/11/30 03:37:21;;;;;;;8.97;6.53;;;;;;;-141.59;100.00;61776.25;5048462;28;20203;-85
2022/11/30 03:39:49;;;;;;;8.10;6.47;;;;;;;-141.59;100.00;61776.25;5051365;28;20441;-85
2022/11/30 03:42:16;;;;;;;9.20;6.47;;;;;;;-141.59;100.00;61776.25;5045867;28;20269;-83
2022/11/30 03:44:44;;;;;;;10.23;7.27;;;;;;;-141.59;100.00;61776.25;5043976;28;20206;-85
2022/11/30 03:47:10;;;;;;;12.73;8.30;;;;;;;-141.59;100.00;61776.25;5042995;28;20215;-84
2022/11/30 03:49:39;;;;;;;11.47;8.10;;;;;;;-141.59;100.00;61776.25;5045021;28;20206;-85
2022/11/30 03:52:07;;;;;;;11.00;7.73;;;;;;;-141.59;100.00;61776.25;5037003;28;20214;-85
2022/11/30 03:54:35;;;;;;;10.90;7.37;;;;;;;-141.59;100.00;61776.25;5047561;28;20209;-84
2022/11/30 03:57:02;;;;;;;13.60;8.50;;;;;;;-141.59;100.00;61776.25;5035637;28;20329;-85
2022/11/30 03:59:32;;;;;;;14.30;8.70;;;;;;;-141.59;100.00;61776.25;5044854;28;20213;-85
2022/11/30 04:01:59;;;;;;;11.30;8.53;;;;;;;-141.59;100.00;61776.25;5045337;28;20206;-88
2022/11/30 04:04:26;;;;;;;11.90;8.40;;;;;;;-141.59;100.00;61776.25;5049638;28;20390;-87
2022/11/30 04:06:53;;;;;;;13.23;8.47;;;;;;;-141.59;100.00;61776.25;5043339;28;20198;-85
2022/11/30 04:09:22;;;;;;;11.27;8.67;;;;;;;-141.59;100.00;61776.25;5038539;28;20227;-84
2022/11/30 04:11:49;;;;;;;15.10;9.43;;;;;;;-141.59;100.00;61776.25;5038200;28;20230;-82
2022/11/30 04:14:16;;;;;;;13.83;9.80;;;;;;;-141.59;100.00;61776.25;5056283;28;20222;-85
2022/11/30 04:16:43;;;;;;;17.53;10.53;;;;;;;-141.59;100.00;61776.25;5045324;28;20203;-85
2022/11/30 04:19:10;;;;;;;16.47;10.40;;;;;;;-141.59;100.00;61776.25;5047274;28;20228;-85
2022/11/30 04:21:37;;;;;;;14.37;10.47;;;;;;;-141.59;100.00;61776.25;5052204;28;20210;-85
2022/11/30 04:24:05;;;;;;;16.63;9.87;;;;;;;-141.59;100.00;61776.25;5046798;28;20214;-85
2022/11/30 04:26:33;;;;;;;12.10;9.33;;;;;;;-141.59;100.00;61776.25;5048893;28;20196;-85
2022/11/30 04:29:01;;;;;;;15.37;10.07;;;;;;;-141.59;100.00;61776.25;5047286;28;20209;-85
2022/11/30 04:31:27;;;;;;;16.93;10.07;;;;;;;-141.59;100.00;61776.25;5047235;28;20227;-85
2022/11/30 04:33:55;;;;;;;13.80;9.47;;;;;;;-141.59;100.00;61776.25;5050354;28;20264;-85
2022/11/30 04:36:22;;;;;;;15.93;9.43;;;;;;;-141.59;100.00;61776.25;5048173;28;20194;-85
2022/11/30 04:38:49;;;;;;;17.37;10.97;;;;;;;-141.59;100.00;61776.25;5044338;28;20211;-85
2022/11/30 04:41:16;;;;;;;15.47;10.20;;;;;;;-141.59;100.00;61776.25;5047999;28;20194;-85
2022/11/30 04:43:45;;;;;;;14.50;9.57;;;;;;;-141.59;100.00;61776.25;5041841;28;20206;-85
2022/11/30 04:46:12;;;;;;;13.67;8.53;;;;;;;-141.59;100.00;61776.25;5046651;28;20202;-85
2022/11/30 04:48:40;;;;;;;13.13;9.23;;;;;;;-141.59;100.00;61776.25;5039716;28;20214;-84
2022/11/30 04:51:09;;;;;;;13.20;8.23;;;;;;;-141.59;100.00;61776.25;5042683;28;20206;-85
2022/11/30 04:53:38;;;;;;;11.40;8.43;;;;;;;-141.59;100.00;61776.25;5040367;28;20198;-84
2022/11/30 04:56:08;;;;;;;13.03;7.87;;;;;;;-141.59;100.00;61776.25;5039643;28;20230;-85
2022/11/30 04:58:37;;;;;;;15.17;9.73;;;;;;;-141.59;100.00;61776.25;5043257;28;20215;-85
2022/11/30 05:01:06;;;;;;;10.17;7.83;;;;;;;-141.59;100.00;61776.25;5036197;28;20210;-86
2022/11/30 05:03:34;;;;;;;10.27;7.10;;;;;;;-141.59;100.00;61776.25;5040486;28;20191;-86
2022/11/30 05:06:01;;;;;;;9.90;7.33;;;;;;;-141.59;100.00;61776.25;5044734;28;20214;-85
2022/11/30 05:08:28;;;;;;;9.13;6.07;;;;;;;-141.59;100.00;61776.25;5048181;28;20206;-85
2022/11/30 05:10:55;;;;;;;11.87;7.30;;;;;;;-141.59;100.00;61776.25;5047994;28;20221;-84
2022/11/30 05:13:26;;;;;;;10.87;7.53;;;;;;;-141.59;100.00;61776.25;5047737;28;20272;-85
2022/11/30 05:15:53;;;;;;;11.73;6.80;;;;;;;-141.59;100.00;61776.25;5043909;28;20234;-85
2022/11/30 05:18:22;;;;;;;11.37;8.07;;;;;;;-141.59;100.00;61776.25;5045540;28;20209;-85
2022/11/30 05:20:50;;;;;;;11.93;7.90;;;;;;;-141.59;100.00;61776.25;5048624;28;20202;-85
2022/11/30 05:23:17;;;;;;;11.20;7.57;;;;;;;-141.59;100.00;61776.25;5035552;28;20319;-84
2022/11/30 05:25:44;;;;;;;11.40;7.57;;;;;;;-141.59;100.00;61776.25;5041361;28;20202;-86
2022/11/30 05:28:12;;;;;;;10.10;7.47;;;;;;;-141.59;100.00;61776.25;5049586;28;20209;-86
2022/11/30 05:30:40;;;;;;;10.40;7.60;;;;;;;-141.59;100.00;61776.25;5065328;28;20208;-86
2022/11/30 05:33:07;;;;;;;10.27;7.23;;;;;;;-141.59;100.00;61776.25;5045100;28;20226;-85
2022/11/30 05:35:36;;;;;;;11.03;7.70;;;;;;;-141.59;100.00;61776.25;5045799;28;20289;-86
2022/11/30 05:38:03;;;;;;;10.80;7.73;;;;;;;-141.59;100.00;61776.25;5041066;28;20234;-85
2022/11/30 05:40:32;;;;;;;11.80;8.80;;;;;;;-141.59;100.00;61776.25;5045867;28;20198;-85
2022/11/30 05:43:01;;;;;;;16.57;10.53;;;;;;;-141.59;100.00;61776.25;5038100;28;20257;-86
2022/11/30 05:45:30;;;;;;;12.60;9.40;;;;;;;-141.59;100.00;61776.25;5045185;28;20202;-86
2022/11/30 05:47:57;;;;;;;13.43;8.70;;;;;;;-141.59;100.00;61776.25;5047504;28;20218;-86
2022/11/30 05:50:24;;;;;;;11.80;8.27;;;;;;;-141.59;100.00;61776.25;5043254;28;20251;-84
2022/11/30 05:52:55;;;;;;;12.03;7.73;;;;;;;-141.59;100.00;61776.25;5046177;28;20277;-85
2022/11/30 05:55:22;;;;;;;14.07;8.70;;;;;;;-141.59;100.00;61776.25;5046010;28;20225;-85
2022/11/30 05:57:49;;;;;;;11.93;8.43;;;;;;;-141.59;100.00;61776.25;5035704;28;20200;-85
2022/11/30 06:00:17;;;;;;;10.33;7.50;;;;;;;-141.59;100.00;61776.25;5042427;28;20269;-85
2022/11/30 06:02:44;;;;;;;12.00;7.40;;;;;;;-141.59;100.00;61776.25;5040261;28;20221;-86
2022/11/30 06:05:12;;;;;;;11.30;7.83;;;;;;;-141.59;100.00;61776.25;5048834;28;20201;-86
2022/11/30 06:07:39;;;;;;;11.57;7.63;;;;;;;-141.59;100.00;61776.25;5037810;28;20202;-85
2022/11/30 06:10:09;;;;;;;12.57;7.40;;;;;;;-141.59;100.00;61776.25;5048468;28;20233;-85
2022/11/30 06:12:36;;;;;;;11.70;7.50;;;;;;;-141.59;100.00;61776.25;5048775;28;20260;-84
2022/11/30 06:15:04;;;;;;;10.70;7.30;;;;;;;-141.59;100.00;61776.25;5044339;28;20209;-85
2022/11/30 06:17:31;;;;;;;10.17;7.63;;;;;;;-141.59;100.00;61776.25;5043654;28;20202;-85
2022/11/30 06:19:58;;;;;;;9.93;7.27;;;;;;;-141.59;100.00;61776.25;5045434;28;20293;-84
2022/11/30 06:22:25;;;;;;;12.40;8.33;;;;;;;-141.59;100.00;61776.25;5032808;28;20213;-85
2022/11/30 06:24:53;;;;;;;12.37;8.13;;;;;;;-141.59;100.00;61776.25;5043240;28;20202;-86
2022/11/30 06:27:21;;;;;;;13.43;8.70;;;;;;;-141.59;100.00;61776.25;5044430;28;20297;-85
2022/11/30 06:29:49;;;;;;;17.37;8.60;;;;;;;-141.59;100.00;61776.25;5049662;28;20198;-86
2022/11/30 06:32:16;;;;;;;14.90;9.13;;;;;;;-141.59;100.00;61776.25;5044250;28;20250;-85
2022/11/30 06:34:43;;;;;;;14.60;8.87;;;;;;;-141.59;100.00;61776.25;5042099;28;20294;-86
2022/11/30 06:37:10;;;;;;;11.27;8.10;;;;;;;-141.59;100.00;61776.25;5048523;28;20222;-85
2022/11/30 06:39:38;;;;;;;11.33;7.80;;;;;;;-141.59;100.00;61776.25;5038925;28;20226;-86
2022/11/30 06:42:05;;;;;;;10.17;6.93;;;;;;;-141.59;100.00;61776.25;5044447;28;20304;-86
2022/11/30 06:44:34;;;;;;;9.30;7.00;;;;;;;-141.59;100.00;61776.25;5047344;28;20210;-85
2022/11/30 06:47:01;;;;;;;10.80;7.53;;;;;;;-141.59;100.00;61776.25;5043055;28;20222;-86
2022/11/30 06:49:29;;;;;;;13.37;6.97;;;;;;;-141.59;100.00;61776.25;5046857;28;20214;-85
2022/11/30 06:51:56;;;;;;;9.40;6.50;;;;;;;-141.59;100.00;61776.25;5039266;28;20233;-86
2022/11/30 06:54:24;;;;;;;13.57;7.53;;;;;;;-141.59;100.00;61776.25;5037690;28;20257;-85
2022/11/30 06:56:51;;;;;;;10.67;7.20;;;;;;;-141.59;100.00;61776.25;5045400;28;20266;-85
2022/11/30 06:59:18;;;;;;;8.97;6.60;;;;;;;-141.59;100.00;61776.25;5043376;28;20203;-86
2022/11/30 07:01:46;;;;;;;10.30;6.77;;;;;;;-141.59;100.00;61776.25;5047779;28;20290;-85
2022/11/30 07:04:13;;;;;;;10.33;6.73;;;;;;;-141.59;100.00;61776.25;5048522;28;20199;-85
2022/11/30 07:06:40;;;;;;;9.67;6.43;;;;;;;-141.59;100.00;61776.25;5044526;28;20278;-85
2022/11/30 07:09:09;;;;;;;8.90;6.03;;;;;;;-141.59;100.00;61776.25;5051951;28;20256;-85
2022/11/30 07:11:36;;;;;;;12.10;6.23;;;;;;;-141.59;100.00;61776.25;5051654;28;20222;-86
2022/11/30 07:14:03;;;;;;;8.13;6.33;;;;;;;-141.59;100.00;61776.25;5048100;28;20229;-85
2022/11/30 07:16:31;;;;;;;7.93;5.73;;;;;;;-141.59;100.00;61776.25;5049875;28;20281;-83
2022/11/30 07:18:59;;;;;;;8.27;6.20;;;;;;;-141.59;100.00;61776.25;5044261;28;20217;-83
2022/11/30 07:21:26;;;;;;;8.80;5.90;;;;;;;-141.59;100.00;61776.25;5047501;28;20209;-83
2022/11/30 07:26:38;;;;;;;11.30;6.23;;;;;;;-141.59;100.00;61776.25;5050013;28;20191;-81
2022/11/30 07:29:06;;;;;;;9.47;6.23;;;;;;;-141.59;100.00;61776.25;5050133;28;20203;-82
2022/11/30 07:31:34;;;;;;;9.60;5.90;;;;;;;-141.59;100.00;61776.25;5040402;28;20203;-82
2022/11/30 07:34:07;;;;;;;10.33;5.87;;;;;;;-141.59;100.00;61776.25;5042566;28;20217;-82
2022/11/30 07:36:35;;;;;;;6.90;5.47;;;;;;;-141.59;100.00;61776.25;5041171;28;20210;-83
2022/11/30 07:39:02;;;;;;;7.77;5.40;;;;;;;-141.59;100.00;61776.25;5040559;28;20210;-83
2022/11/30 07:41:29;;;;;;;8.67;5.60;;;;;;;-141.59;100.00;61776.25;5046103;28;20202;-82
2022/11/30 07:43:57;;;;;;;8.53;5.23;;;;;;;-141.59;100.00;61776.25;5049263;28;20273;-82
2022/11/30 07:46:24;;;;;;;7.33;5.00;;;;;;;-141.59;100.00;61776.25;5039309;28;20203;-82
2022/11/30 07:48:51;;;;;;;7.70;5.37;;;;;;;-141.59;100.00;61776.25;5040248;28;20229;-81
2022/11/30 07:51:21;;;;;;;8.50;6.00;;;;;;;-141.59;100.00;61776.25;5039633;28;20206;-82
2022/11/30 07:53:49;;;;;;;7.30;5.40;;;;;;;-141.59;100.00;61776.25;5047641;28;20237;-82
2022/11/30 07:56:18;;;;;;;7.00;5.20;;;;;;;-141.59;100.00;61776.25;5047265;28;20238;-82
2022/11/30 07:58:46;;;;;;;6.13;5.07;;;;;;;-141.59;100.00;61776.25;5044825;28;20198;-83
2022/11/30 08:01:15;;;;;;;7.83;5.17;;;;;;;-141.59;100.00;61776.25;5040788;28;20191;-81
2022/11/30 08:03:43;;;;;;;7.23;5.33;;;;;;;-141.59;100.00;61776.25;5048659;28;20237;-83
2022/11/30 08:06:11;;;;;;;8.50;5.50;;;;;;;-141.59;100.00;61776.25;5042462;28;20285;-83
2022/11/30 08:08:42;;;;;;;8.47;5.07;;;;;;;-141.59;100.00;61776.25;5048397;28;20245;-84
2022/11/30 08:11:11;;;;;;;9.27;5.33;;;;;;;-141.59;100.00;61776.25;5048930;28;20254;-83
2022/11/30 08:13:38;;;;;;;11.07;5.60;;;;;;;-141.59;100.00;61776.25;5047757;28;20234;-84
2022/11/30 08:16:07;;;;;;;7.53;5.10;;;;;;;-141.59;100.00;61776.25;5051238;28;20207;-84
2022/11/30 08:18:35;;;;;;;7.43;5.33;;;;;;;-141.59;100.00;61776.25;5045809;28;20202;-82
2022/11/30 08:21:07;;;;;;;7.77;5.17;;;;;;;-141.59;100.00;61776.25;5050550;28;20206;-82
2022/11/30 08:23:37;;;;;;;8.37;4.83;;;;;;;-141.59;100.00;61776.25;5039822;28;20202;-83
2022/11/30 08:26:12;;;;;;;7.83;6.07;;;;;;;-141.59;100.00;61776.25;5052789;28;20260;-83
2022/11/30 08:28:39;;;;;;;6.10;4.63;;;;;;;-141.59;100.00;61776.25;5040940;28;20248;-83
2022/11/30 08:31:11;;;;;;;5.43;4.40;;;;;;;-141.59;100.00;61776.25;5042251;28;20194;-84
2022/11/30 08:33:39;;;;;;;6.10;4.37;;;;;;;-141.59;100.00;61776.25;5045619;28;20223;-84
2022/11/30 08:36:08;;;;;;;6.80;5.20;;;;;;;-141.59;100.00;61776.25;5044917;28;20203;-85
2022/11/30 08:38:35;;;;;;;7.50;5.43;;;;;;;-141.59;100.00;61776.25;5037388;28;20203;-84
2022/11/30 08:41:02;;;;;;;9.90;5.17;;;;;;;-141.59;100.00;61776.25;5050222;28;20203;-84
2022/11/30 08:43:32;;;;;;;7.40;5.60;;;;;;;-141.59;100.00;61776.25;5042349;28;20210;-84
2022/11/30 08:45:59;;;;;;;6.53;5.10;;;;;;;-141.59;100.00;61776.25;5047370;28;20202;-84
2022/11/30 08:48:26;;;;;;;6.33;5.13;;;;;;;-141.59;100.00;61776.25;5049967;28;20187;-84
2022/11/30 08:50:53;;;;;;;8.47;5.63;;;;;;;-141.59;100.00;61776.25;5049262;28;20205;-83
2022/11/30 08:53:21;;;;;;;7.20;5.70;;;;;;;-141.59;100.00;61776.25;5047208;28;20305;-85
2022/11/30 08:55:55;;;;;;;9.53;6.60;;;;;;;-141.59;100.00;61776.25;5051045;28;20371;-84
2022/11/30 08:58:22;;;;;;;6.83;5.17;;;;;;;-141.59;100.00;61776.25;5044709;28;20231;-84
2022/11/30 09:00:51;;;;;;;7.57;5.50;;;;;;;-141.59;100.00;61776.25;5041415;28;20203;-85
2022/11/30 09:03:18;;;;;;;7.27;5.40;;;;;;;-141.59;100.00;61776.25;5039538;28;20206;-83
2022/11/30 09:05:46;;;;;;;7.37;5.23;;;;;;;-141.59;100.00;61776.25;5046724;28;20201;-84
2022/11/30 09:08:13;;;;;;;9.40;5.63;;;;;;;-141.59;100.00;61776.25;5049511;28;20202;-85
2022/11/30 09:10:40;;;;;;;6.53;5.00;;;;;;;-141.59;100.00;61776.25;5037988;28;20233;-84
2022/11/30 09:13:07;;;;;;;7.17;5.40;;;;;;;-141.59;100.00;61776.25;5058010;28;20237;-84
2022/11/30 09:15:34;;;;;;;7.47;5.30;;;;;;;-141.59;100.00;61776.25;5049805;28;20206;-84
2022/11/30 09:18:03;;;;;;;8.73;6.47;;;;;;;-141.59;100.00;61776.25;5049470;28;20217;-84
2022/11/30 09:20:30;;;;;;;10.47;6.60;;;;;;;-141.59;100.00;61776.25;5043453;28;20226;-84
2022/11/30 09:23:00;;;;;;;8.00;5.70;;;;;;;-141.59;100.00;61776.25;5048636;28;20205;-84
2022/11/30 09:25:27;;;;;;;7.73;5.80;;;;;;;-141.59;100.00;61776.25;5045573;28;20195;-84
2022/11/30 09:27:54;;;;;;;8.60;6.80;;;;;;;-141.59;100.00;61776.25;5043882;28;20209;-83
2022/11/30 09:30:21;;;;;;;7.57;6.13;;;;;;;-141.59;100.00;61776.25;5042579;28;20200;-84
2022/11/30 09:32:49;;;;;;;8.60;6.27;;;;;;;-141.59;100.00;61776.25;5047943;28;20210;-84
2022/11/30 09:35:18;;;;;;;9.03;6.63;;;;;;;-141.59;100.00;61776.25;5042102;28;20199;-84
2022/11/30 09:37:45;;;;;;;6.73;5.63;;;;;;;-141.59;100.00;61776.25;5037407;28;20199;-84
2022/11/30 09:40:13;;;;;;;8.30;5.97;;;;;;;-141.59;100.00;61776.25;5048958;28;20216;-84
2022/11/30 09:42:51;;;;;;;10.23;5.87;;;;;;;-141.59;100.00;61776.25;5046074;28;20210;-84
2022/11/30 09:45:23;;;;;;;7.47;6.00;;;;;;;-141.59;100.00;61776.25;5046907;28;20215;-84
2022/11/30 09:48:21;;;;;;;9.63;6.40;;;;;;;-141.59;100.00;61776.25;5047055;28;20297;-84
2022/11/30 09:50:51;;;;;;;8.00;6.10;;;;;;;-141.59;100.00;61776.25;5045299;28;20214;-84
2022/11/30 09:53:24;;;;;;;7.03;5.43;;;;;;;-141.59;100.00;61776.25;5041867;28;20304;-85
2022/11/30 09:55:54;;;;;;;6.80;4.90;;;;;;;-141.59;100.00;61776.25;5043791;28;20604;-84
2022/11/30 09:58:33;;;;;;;6.13;5.17;;;;;;;-141.59;100.00;61776.25;5047999;28;20210;-85
2022/11/30 10:01:01;;;;;;;7.77;5.70;;;;;;;-141.59;100.00;61776.25;5037236;28;20234;-84
2022/11/30 10:03:28;;;;;;;6.53;5.40;;;;;;;-141.59;100.00;61776.25;5046945;28;20287;-84
2022/11/30 10:06:06;;;;;;;7.70;5.07;;;;;;;-141.59;100.00;61776.25;5050237;28;20206;-84
2022/11/30 10:08:55;;;;;;;6.77;5.20;;;;;;;-141.59;100.00;61776.25;5042296;28;20259;-84
2022/11/30 10:11:38;;;;;;;7.87;4.87;;;;;;;-141.59;100.00;61776.25;5031896;28;20328;-84
2022/11/30 10:14:19;;;;;;;7.73;5.00;;;;;;;-141.59;100.00;61776.25;5038436;28;20273;-83
2022/11/30 10:16:56;;;;;;;8.73;4.60;;;;;;;-141.59;100.00;61776.25;5040297;28;20206;-84
2022/11/30 10:19:39;;;;;;;6.33;4.77;;;;;;;-141.59;100.00;61776.25;5048044;28;20210;-84
2022/11/30 10:22:22;;;;;;;5.73;4.63;;;;;;;-141.59;100.00;61776.25;5046865;28;20218;-84
2022/11/30 10:25:11;;;;;;;48.10;9.33;;;;;;;-141.59;100.00;61776.25;5042236;28;20208;-84
2022/11/30 10:27:49;;;;;;;11.73;4.97;;;;;;;-141.59;100.00;61776.25;5038208;28;20207;-84
2022/11/30 10:30:21;;;;;;;6.67;5.23;;;;;;;-141.59;100.00;61776.25;5036189;28;20217;-84
2022/11/30 10:32:52;;;;;;;6.03;4.53;;;;;;;-141.59;100.00;61776.25;5032889;28;20202;-84
2022/11/30 10:35:34;;;;;;;6.10;4.80;;;;;;;-141.59;100.00;61776.25;5048242;28;20315;-84
2022/11/30 10:38:15;;;;;;;7.27;4.83;;;;;;;-141.59;100.00;61776.25;5045958;28;20229;-84
2022/11/30 10:40:48;;;;;;;6.37;4.63;;;;;;;-141.59;100.00;61776.25;5052853;28;20237;-85
2022/11/30 10:43:22;;;;;;;5.83;4.90;;;;;;;-141.59;100.00;61776.25;5048429;28;20233;-84
2022/11/30 10:45:51;;;;;;;6.20;4.67;;;;;;;-141.59;100.00;61776.25;5046503;28;20193;-84
2022/11/30 10:48:24;;;;;;;6.70;4.43;;;;;;;-141.59;100.00;61776.25;5045151;28;20297;-85
2022/11/30 10:50:53;;;;;;;5.53;4.43;;;;;;;-141.59;100.00;61776.25;5044004;28;20202;-84
2022/11/30 10:53:22;;;;;;;7.43;4.93;;;;;;;-141.59;100.00;61776.25;5037568;28;20230;-84
2022/11/30 10:56:03;;;;;;;6.60;4.63;;;;;;;-141.59;100.00;61776.25;5059939;28;20240;-84
2022/11/30 10:58:37;;;;;;;5.53;4.70;;;;;;;-141.59;100.00;61776.25;5051208;28;20244;-85
2022/11/30 11:01:07;;;;;;;5.50;4.27;;;;;;;-141.59;100.00;61776.25;5049833;28;20206;-83
2022/11/30 11:03:34;;;;;;;5.37;4.53;;;;;;;-141.59;100.00;61776.25;5049900;28;20213;-84
2022/11/30 11:06:16;;;;;;;7.27;5.00;;;;;;;-141.59;100.00;61776.25;5045637;28;20230;-84
2022/11/30 11:08:45;;;;;;;7.27;4.90;;;;;;;-141.59;100.00;61776.25;5042235;28;20300;-84
2022/11/30 11:11:34;;;;;;;6.67;5.13;;;;;;;-141.59;100.00;61776.25;5049790;28;20218;-84
2022/11/30 11:14:18;;;;;;;6.40;5.07;;;;;;;-141.59;100.00;61776.25;5052500;28;20228;-84
2022/11/30 11:16:51;;;;;;;6.87;5.07;;;;;;;-141.59;100.00;61776.25;5055266;28;20202;-84
2022/11/30 11:19:32;;;;;;;6.67;4.90;;;;;;;-141.59;100.00;61776.25;5054790;28;20210;-84